sensor_id;sensor_type;location;lat;lon;timestamp;temperature;humidity
23827;DHT22;12094;50.822;4.376;2023-07-24T00:01:58;18.70;99.90
23827;DHT22;12094;50.822;4.376;2023-07-24T00:04:25;18.70;99.90
23827;DHT22;12094;50.822;4.376;2023-07-24T00:06:52;18.70;99.90
23827;DHT22;12094;50.822;4.376;2023-07-24T00:09:19;18.80;99.90
23827;DHT22;12094;50.822;4.376;2023-07-24T00:11:48;19.00;99.90
23827;DHT22;12094;50.822;4.376;2023-07-24T00:14:16;19.10;99.90
23827;DHT22;12094;50.822;4.376;2023-07-24T00:16:43;19.10;99.90
23827;DHT22;12094;50.822;4.376;2023-07-24T00:19:10;19.10;99.90
23827;DHT22;12094;50.822;4.376;2023-07-24T00:21:38;18.90;99.90
23827;DHT22;12094;50.822;4.376;2023-07-24T00:24:05;18.80;99.90
23827;DHT22;12094;50.822;4.376;2023-07-24T00:26:32;18.80;99.90
23827;DHT22;12094;50.822;4.376;2023-07-24T00:29:00;18.70;99.90
23827;DHT22;12094;50.822;4.376;2023-07-24T00:31:27;18.70;99.90
23827;DHT22;12094;50.822;4.376;2023-07-24T00:33:55;18.70;99.90
23827;DHT22;12094;50.822;4.376;2023-07-24T00:36:22;18.70;99.90
23827;DHT22;12094;50.822;4.376;2023-07-24T00:38:49;18.70;99.90
23827;DHT22;12094;50.822;4.376;2023-07-24T00:41:16;18.70;99.90
23827;DHT22;12094;50.822;4.376;2023-07-24T00:43:46;18.70;99.90
23827;DHT22;12094;50.822;4.376;2023-07-24T00:46:14;18.70;99.90
23827;DHT22;12094;50.822;4.376;2023-07-24T00:48:41;18.70;99.90
23827;DHT22;12094;50.822;4.376;2023-07-24T00:51:09;18.70;99.90
23827;DHT22;12094;50.822;4.376;2023-07-24T00:53:38;18.70;99.90
23827;DHT22;12094;50.822;4.376;2023-07-24T00:56:06;18.70;99.90
23827;DHT22;12094;50.822;4.376;2023-07-24T00:58:34;18.80;99.90
23827;DHT22;12094;50.822;4.376;2023-07-24T01:01:04;18.90;99.90
23827;DHT22;12094;50.822;4.376;2023-07-24T01:03:35;18.90;99.90
23827;DHT22;12094;50.822;4.376;2023-07-24T01:06:03;18.90;99.90
23827;DHT22;12094;50.822;4.376;2023-07-24T01:08:30;18.90;99.90
23827;DHT22;12094;50.822;4.376;2023-07-24T01:11:01;18.90;99.90
23827;DHT22;12094;50.822;4.376;2023-07-24T01:13:33;18.80;99.90
23827;DHT22;12094;50.822;4.376;2023-07-24T01:16:09;18.70;99.90
23827;DHT22;12094;50.822;4.376;2023-07-24T01:18:39;18.60;99.90
23827;DHT22;12094;50.822;4.376;2023-07-24T01:21:09;18.50;99.90
23827;DHT22;12094;50.822;4.376;2023-07-24T01:24:05;18.50;99.90
23827;DHT22;12094;50.822;4.376;2023-07-24T01:26:36;18.40;99.90
23827;DHT22;12094;50.822;4.376;2023-07-24T01:29:03;18.30;99.90
23827;DHT22;12094;50.822;4.376;2023-07-24T01:31:30;18.30;99.90
23827;DHT22;12094;50.822;4.376;2023-07-24T01:33:57;18.20;99.90
23827;DHT22;12094;50.822;4.376;2023-07-24T01:36:24;18.30;99.90
23827;DHT22;12094;50.822;4.376;2023-07-24T01:38:52;18.20;99.90
23827;DHT22;12094;50.822;4.376;2023-07-24T01:41:19;18.10;99.90
23827;DHT22;12094;50.822;4.376;2023-07-24T01:43:47;18.00;99.90
23827;DHT22;12094;50.822;4.376;2023-07-24T01:46:14;18.00;99.90
23827;DHT22;12094;50.822;4.376;2023-07-24T01:48:43;18.00;99.90
23827;DHT22;12094;50.822;4.376;2023-07-24T01:51:10;18.00;99.90
23827;DHT22;12094;50.822;4.376;2023-07-24T01:53:37;18.00;99.90
23827;DHT22;12094;50.822;4.376;2023-07-24T01:56:04;17.90;99.90
23827;DHT22;12094;50.822;4.376;2023-07-24T01:58:30;17.90;99.90
23827;DHT22;12094;50.822;4.376;2023-07-24T02:00:58;17.80;99.90
23827;DHT22;12094;50.822;4.376;2023-07-24T02:03:26;17.80;99.90
23827;DHT22;12094;50.822;4.376;2023-07-24T02:05:53;17.80;99.90
23827;DHT22;12094;50.822;4.376;2023-07-24T02:08:20;17.80;99.90
23827;DHT22;12094;50.822;4.376;2023-07-24T02:10:50;17.90;99.90
23827;DHT22;12094;50.822;4.376;2023-07-24T02:13:17;17.90;99.90
23827;DHT22;12094;50.822;4.376;2023-07-24T02:15:48;17.90;99.90
23827;DHT22;12094;50.822;4.376;2023-07-24T02:18:17;17.90;99.90
23827;DHT22;12094;50.822;4.376;2023-07-24T02:20:53;17.90;99.90
23827;DHT22;12094;50.822;4.376;2023-07-24T02:23:20;18.00;99.90
23827;DHT22;12094;50.822;4.376;2023-07-24T02:25:51;18.00;99.90
23827;DHT22;12094;50.822;4.376;2023-07-24T02:28:18;18.00;99.90
23827;DHT22;12094;50.822;4.376;2023-07-24T02:30:47;18.10;99.90
23827;DHT22;12094;50.822;4.376;2023-07-24T02:33:14;18.10;99.90
23827;DHT22;12094;50.822;4.376;2023-07-24T02:35:42;18.10;99.90
23827;DHT22;12094;50.822;4.376;2023-07-24T02:38:09;18.10;99.90
23827;DHT22;12094;50.822;4.376;2023-07-24T02:40:40;18.10;99.90
23827;DHT22;12094;50.822;4.376;2023-07-24T02:43:08;18.10;99.90
23827;DHT22;12094;50.822;4.376;2023-07-24T02:45:37;18.10;99.90
23827;DHT22;12094;50.822;4.376;2023-07-24T02:48:04;18.20;99.90
23827;DHT22;12094;50.822;4.376;2023-07-24T02:50:33;18.20;99.90
23827;DHT22;12094;50.822;4.376;2023-07-24T02:53:00;18.10;99.90
23827;DHT22;12094;50.822;4.376;2023-07-24T02:55:28;18.20;99.90
23827;DHT22;12094;50.822;4.376;2023-07-24T02:57:56;18.10;99.90
23827;DHT22;12094;50.822;4.376;2023-07-24T03:00:25;18.20;99.90
23827;DHT22;12094;50.822;4.376;2023-07-24T03:02:52;18.20;99.90
23827;DHT22;12094;50.822;4.376;2023-07-24T03:05:20;18.30;99.90
23827;DHT22;12094;50.822;4.376;2023-07-24T03:07:46;18.30;99.90
23827;DHT22;12094;50.822;4.376;2023-07-24T03:10:13;18.30;99.90
23827;DHT22;12094;50.822;4.376;2023-07-24T03:12:40;18.30;99.90
23827;DHT22;12094;50.822;4.376;2023-07-24T03:15:08;18.30;99.90
23827;DHT22;12094;50.822;4.376;2023-07-24T03:17:34;18.20;99.90
23827;DHT22;12094;50.822;4.376;2023-07-24T03:20:09;18.10;99.90
23827;DHT22;12094;50.822;4.376;2023-07-24T03:22:36;18.00;99.90
23827;DHT22;12094;50.822;4.376;2023-07-24T03:25:05;18.00;99.90
23827;DHT22;12094;50.822;4.376;2023-07-24T03:27:32;17.90;99.90
23827;DHT22;12094;50.822;4.376;2023-07-24T03:29:59;17.90;99.90
23827;DHT22;12094;50.822;4.376;2023-07-24T03:32:26;17.80;99.90
23827;DHT22;12094;50.822;4.376;2023-07-24T03:34:55;17.70;99.90
23827;DHT22;12094;50.822;4.376;2023-07-24T03:37:22;17.60;99.90
23827;DHT22;12094;50.822;4.376;2023-07-24T03:39:50;17.50;99.90
23827;DHT22;12094;50.822;4.376;2023-07-24T03:42:27;17.40;99.90
23827;DHT22;12094;50.822;4.376;2023-07-24T03:44:54;17.40;99.90
23827;DHT22;12094;50.822;4.376;2023-07-24T03:47:23;17.40;99.90
23827;DHT22;12094;50.822;4.376;2023-07-24T03:49:50;17.50;99.90
23827;DHT22;12094;50.822;4.376;2023-07-24T03:52:20;17.50;99.90
23827;DHT22;12094;50.822;4.376;2023-07-24T03:54:47;17.50;99.90
23827;DHT22;12094;50.822;4.376;2023-07-24T03:57:14;17.40;99.90
23827;DHT22;12094;50.822;4.376;2023-07-24T03:59:40;17.30;99.90
23827;DHT22;12094;50.822;4.376;2023-07-24T04:02:07;17.20;99.90
23827;DHT22;12094;50.822;4.376;2023-07-24T04:04:37;17.30;99.90
23827;DHT22;12094;50.822;4.376;2023-07-24T04:07:05;17.30;99.90
23827;DHT22;12094;50.822;4.376;2023-07-24T04:09:32;17.30;99.90
23827;DHT22;12094;50.822;4.376;2023-07-24T04:11:59;17.40;99.90
23827;DHT22;12094;50.822;4.376;2023-07-24T04:14:26;17.40;99.90
23827;DHT22;12094;50.822;4.376;2023-07-24T04:16:53;17.40;99.90
23827;DHT22;12094;50.822;4.376;2023-07-24T04:19:22;17.30;99.90
23827;DHT22;12094;50.822;4.376;2023-07-24T04:21:49;17.20;99.90
23827;DHT22;12094;50.822;4.376;2023-07-24T04:24:16;17.30;99.90
23827;DHT22;12094;50.822;4.376;2023-07-24T04:26:43;17.20;99.90
23827;DHT22;12094;50.822;4.376;2023-07-24T04:29:10;17.20;99.90
23827;DHT22;12094;50.822;4.376;2023-07-24T04:31:37;17.20;99.90
23827;DHT22;12094;50.822;4.376;2023-07-24T04:34:04;17.20;99.90
23827;DHT22;12094;50.822;4.376;2023-07-24T04:36:31;17.20;99.90
23827;DHT22;12094;50.822;4.376;2023-07-24T04:38:58;17.20;99.90
23827;DHT22;12094;50.822;4.376;2023-07-24T04:41:25;17.20;99.90
23827;DHT22;12094;50.822;4.376;2023-07-24T04:43:53;17.20;99.90
23827;DHT22;12094;50.822;4.376;2023-07-24T04:46:20;17.30;99.90
23827;DHT22;12094;50.822;4.376;2023-07-24T04:48:47;17.30;99.90
23827;DHT22;12094;50.822;4.376;2023-07-24T04:51:14;17.30;99.90
23827;DHT22;12094;50.822;4.376;2023-07-24T04:53:41;17.20;99.90
23827;DHT22;12094;50.822;4.376;2023-07-24T04:56:08;17.20;99.90
23827;DHT22;12094;50.822;4.376;2023-07-24T04:58:35;17.20;99.90
23827;DHT22;12094;50.822;4.376;2023-07-24T05:01:04;17.10;99.90
23827;DHT22;12094;50.822;4.376;2023-07-24T05:03:32;17.00;99.90
23827;DHT22;12094;50.822;4.376;2023-07-24T05:05:59;17.10;99.90
23827;DHT22;12094;50.822;4.376;2023-07-24T05:08:26;17.00;99.90
23827;DHT22;12094;50.822;4.376;2023-07-24T05:10:59;17.10;99.90
23827;DHT22;12094;50.822;4.376;2023-07-24T05:13:27;17.00;99.90
23827;DHT22;12094;50.822;4.376;2023-07-24T05:15:54;17.10;99.90
23827;DHT22;12094;50.822;4.376;2023-07-24T05:18:22;17.10;99.90
23827;DHT22;12094;50.822;4.376;2023-07-24T05:20:49;17.10;99.90
23827;DHT22;12094;50.822;4.376;2023-07-24T05:23:19;17.00;99.90
23827;DHT22;12094;50.822;4.376;2023-07-24T05:25:46;17.00;99.90
23827;DHT22;12094;50.822;4.376;2023-07-24T05:28:13;17.00;99.90
23827;DHT22;12094;50.822;4.376;2023-07-24T05:30:40;17.00;99.90
23827;DHT22;12094;50.822;4.376;2023-07-24T05:33:07;17.00;99.90
23827;DHT22;12094;50.822;4.376;2023-07-24T05:35:35;17.00;99.90
23827;DHT22;12094;50.822;4.376;2023-07-24T05:38:02;17.10;99.90
23827;DHT22;12094;50.822;4.376;2023-07-24T05:40:30;17.10;99.90
23827;DHT22;12094;50.822;4.376;2023-07-24T05:42:56;17.20;99.90
23827;DHT22;12094;50.822;4.376;2023-07-24T05:45:23;17.10;99.90
23827;DHT22;12094;50.822;4.376;2023-07-24T05:47:50;17.20;99.90
23827;DHT22;12094;50.822;4.376;2023-07-24T05:50:17;17.20;99.90
23827;DHT22;12094;50.822;4.376;2023-07-24T05:52:44;17.20;99.90
23827;DHT22;12094;50.822;4.376;2023-07-24T05:55:11;17.30;99.90
23827;DHT22;12094;50.822;4.376;2023-07-24T05:57:38;17.50;99.90
23827;DHT22;12094;50.822;4.376;2023-07-24T06:00:06;17.50;99.90
23827;DHT22;12094;50.822;4.376;2023-07-24T06:02:42;17.40;99.90
23827;DHT22;12094;50.822;4.376;2023-07-24T06:05:09;17.30;99.90
23827;DHT22;12094;50.822;4.376;2023-07-24T06:07:36;17.40;99.90
23827;DHT22;12094;50.822;4.376;2023-07-24T06:10:04;17.40;99.90
23827;DHT22;12094;50.822;4.376;2023-07-24T06:12:31;17.30;99.90
23827;DHT22;12094;50.822;4.376;2023-07-24T06:15:00;17.30;99.90
23827;DHT22;12094;50.822;4.376;2023-07-24T06:17:27;17.30;99.90
23827;DHT22;12094;50.822;4.376;2023-07-24T06:19:53;17.20;99.90
23827;DHT22;12094;50.822;4.376;2023-07-24T06:22:21;17.30;99.90
23827;DHT22;12094;50.822;4.376;2023-07-24T06:24:48;17.20;99.90
23827;DHT22;12094;50.822;4.376;2023-07-24T06:27:16;17.20;99.90
23827;DHT22;12094;50.822;4.376;2023-07-24T06:29:43;17.30;99.90
23827;DHT22;12094;50.822;4.376;2023-07-24T06:32:09;17.40;99.90
23827;DHT22;12094;50.822;4.376;2023-07-24T06:34:36;17.50;99.90
23827;DHT22;12094;50.822;4.376;2023-07-24T06:37:03;17.50;99.90
23827;DHT22;12094;50.822;4.376;2023-07-24T06:39:48;17.60;99.90
23827;DHT22;12094;50.822;4.376;2023-07-24T06:42:15;17.70;99.90
23827;DHT22;12094;50.822;4.376;2023-07-24T06:44:42;17.80;99.90
23827;DHT22;12094;50.822;4.376;2023-07-24T06:47:08;17.90;99.90
23827;DHT22;12094;50.822;4.376;2023-07-24T06:49:35;17.80;99.90
23827;DHT22;12094;50.822;4.376;2023-07-24T06:52:04;17.90;99.90
23827;DHT22;12094;50.822;4.376;2023-07-24T06:54:33;17.90;99.90
23827;DHT22;12094;50.822;4.376;2023-07-24T06:57:00;18.10;99.90
23827;DHT22;12094;50.822;4.376;2023-07-24T06:59:29;17.90;99.90
23827;DHT22;12094;50.822;4.376;2023-07-24T07:01:56;18.10;99.90
23827;DHT22;12094;50.822;4.376;2023-07-24T07:04:23;18.10;99.90
23827;DHT22;12094;50.822;4.376;2023-07-24T07:06:50;18.30;99.90
23827;DHT22;12094;50.822;4.376;2023-07-24T07:09:18;18.50;99.90
23827;DHT22;12094;50.822;4.376;2023-07-24T07:11:44;18.50;99.90
23827;DHT22;12094;50.822;4.376;2023-07-24T07:14:11;18.40;99.90
23827;DHT22;12094;50.822;4.376;2023-07-24T07:16:39;18.30;99.90
23827;DHT22;12094;50.822;4.376;2023-07-24T07:19:07;18.30;99.90
23827;DHT22;12094;50.822;4.376;2023-07-24T07:21:37;18.20;99.90
23827;DHT22;12094;50.822;4.376;2023-07-24T07:24:04;18.30;99.90
23827;DHT22;12094;50.822;4.376;2023-07-24T07:26:32;18.40;99.90
23827;DHT22;12094;50.822;4.376;2023-07-24T07:28:59;18.60;99.90
23827;DHT22;12094;50.822;4.376;2023-07-24T07:31:26;18.70;99.90
23827;DHT22;12094;50.822;4.376;2023-07-24T07:33:54;18.80;99.90
23827;DHT22;12094;50.822;4.376;2023-07-24T07:36:21;19.10;99.90
23827;DHT22;12094;50.822;4.376;2023-07-24T07:38:49;19.10;99.90
23827;DHT22;12094;50.822;4.376;2023-07-24T07:41:16;19.20;99.90
23827;DHT22;12094;50.822;4.376;2023-07-24T07:43:43;19.20;99.90
23827;DHT22;12094;50.822;4.376;2023-07-24T07:46:10;19.00;99.90
23827;DHT22;12094;50.822;4.376;2023-07-24T07:48:38;18.90;99.90
23827;DHT22;12094;50.822;4.376;2023-07-24T07:51:06;18.90;99.90
23827;DHT22;12094;50.822;4.376;2023-07-24T07:53:33;18.90;99.90
23827;DHT22;12094;50.822;4.376;2023-07-24T07:56:00;18.90;99.90
23827;DHT22;12094;50.822;4.376;2023-07-24T07:58:27;19.00;99.90
23827;DHT22;12094;50.822;4.376;2023-07-24T08:00:54;19.10;99.90
23827;DHT22;12094;50.822;4.376;2023-07-24T08:03:21;19.20;99.90
23827;DHT22;12094;50.822;4.376;2023-07-24T08:05:49;19.30;99.90
23827;DHT22;12094;50.822;4.376;2023-07-24T08:08:15;19.20;99.90
23827;DHT22;12094;50.822;4.376;2023-07-24T08:10:44;19.40;99.90
23827;DHT22;12094;50.822;4.376;2023-07-24T08:13:10;19.60;99.90
23827;DHT22;12094;50.822;4.376;2023-07-24T08:15:38;19.50;99.90
23827;DHT22;12094;50.822;4.376;2023-07-24T08:18:05;19.30;99.90
23827;DHT22;12094;50.822;4.376;2023-07-24T08:20:35;19.30;99.90
23827;DHT22;12094;50.822;4.376;2023-07-24T08:23:03;19.30;99.90
23827;DHT22;12094;50.822;4.376;2023-07-24T08:25:30;19.20;99.90
23827;DHT22;12094;50.822;4.376;2023-07-24T08:27:57;19.10;99.90
23827;DHT22;12094;50.822;4.376;2023-07-24T08:30:31;19.20;99.90
23827;DHT22;12094;50.822;4.376;2023-07-24T08:33:00;19.10;99.90
23827;DHT22;12094;50.822;4.376;2023-07-24T08:35:28;19.10;99.90
23827;DHT22;12094;50.822;4.376;2023-07-24T08:37:56;19.00;99.90
23827;DHT22;12094;50.822;4.376;2023-07-24T08:40:24;19.20;99.90
23827;DHT22;12094;50.822;4.376;2023-07-24T08:42:51;19.10;99.90
23827;DHT22;12094;50.822;4.376;2023-07-24T08:45:20;19.00;99.90
23827;DHT22;12094;50.822;4.376;2023-07-24T08:47:48;18.90;99.90
23827;DHT22;12094;50.822;4.376;2023-07-24T08:50:17;18.80;99.90
23827;DHT22;12094;50.822;4.376;2023-07-24T08:52:46;18.90;99.90
23827;DHT22;12094;50.822;4.376;2023-07-24T08:55:15;19.00;99.90
23827;DHT22;12094;50.822;4.376;2023-07-24T08:57:42;19.10;99.90
23827;DHT22;12094;50.822;4.376;2023-07-24T09:00:11;19.10;99.90
23827;DHT22;12094;50.822;4.376;2023-07-24T09:02:38;19.00;99.90
23827;DHT22;12094;50.822;4.376;2023-07-24T09:05:05;19.10;99.90
23827;DHT22;12094;50.822;4.376;2023-07-24T09:07:33;18.90;99.90
23827;DHT22;12094;50.822;4.376;2023-07-24T09:10:01;18.90;99.90
23827;DHT22;12094;50.822;4.376;2023-07-24T09:12:31;18.90;99.90
23827;DHT22;12094;50.822;4.376;2023-07-24T09:15:03;18.80;99.90
23827;DHT22;12094;50.822;4.376;2023-07-24T09:17:32;18.70;99.90
23827;DHT22;12094;50.822;4.376;2023-07-24T09:19:59;18.50;99.90
23827;DHT22;12094;50.822;4.376;2023-07-24T09:22:28;18.50;99.90
23827;DHT22;12094;50.822;4.376;2023-07-24T09:24:57;18.40;99.90
23827;DHT22;12094;50.822;4.376;2023-07-24T09:27:27;18.40;99.90
23827;DHT22;12094;50.822;4.376;2023-07-24T09:29:55;18.30;99.90
23827;DHT22;12094;50.822;4.376;2023-07-24T09:32:24;18.20;99.90
23827;DHT22;12094;50.822;4.376;2023-07-24T09:34:51;18.00;99.90
23827;DHT22;12094;50.822;4.376;2023-07-24T09:37:32;18.00;99.90
23827;DHT22;12094;50.822;4.376;2023-07-24T09:39:59;18.00;99.90
23827;DHT22;12094;50.822;4.376;2023-07-24T09:42:30;17.90;99.90
23827;DHT22;12094;50.822;4.376;2023-07-24T09:44:58;17.90;99.90
23827;DHT22;12094;50.822;4.376;2023-07-24T09:47:25;18.00;99.90
23827;DHT22;12094;50.822;4.376;2023-07-24T09:50:12;18.20;99.90
23827;DHT22;12094;50.822;4.376;2023-07-24T09:52:41;18.20;99.90
23827;DHT22;12094;50.822;4.376;2023-07-24T09:55:21;18.20;99.90
23827;DHT22;12094;50.822;4.376;2023-07-24T09:57:53;18.30;99.90
23827;DHT22;12094;50.822;4.376;2023-07-24T10:00:21;18.50;99.90
23827;DHT22;12094;50.822;4.376;2023-07-24T10:02:49;18.80;99.90
23827;DHT22;12094;50.822;4.376;2023-07-24T10:05:16;19.00;99.90
23827;DHT22;12094;50.822;4.376;2023-07-24T10:07:44;18.60;99.90
23827;DHT22;12094;50.822;4.376;2023-07-24T10:10:13;18.50;99.90
23827;DHT22;12094;50.822;4.376;2023-07-24T10:12:40;18.60;99.90
23827;DHT22;12094;50.822;4.376;2023-07-24T10:15:08;18.80;99.90
23827;DHT22;12094;50.822;4.376;2023-07-24T10:17:38;18.90;99.90
23827;DHT22;12094;50.822;4.376;2023-07-24T10:20:08;18.90;99.90
23827;DHT22;12094;50.822;4.376;2023-07-24T10:22:36;19.00;99.90
23827;DHT22;12094;50.822;4.376;2023-07-24T10:25:05;19.30;99.90
23827;DHT22;12094;50.822;4.376;2023-07-24T10:27:36;19.50;99.90
23827;DHT22;12094;50.822;4.376;2023-07-24T10:30:06;19.80;99.90
23827;DHT22;12094;50.822;4.376;2023-07-24T10:32:53;20.10;99.90
23827;DHT22;12094;50.822;4.376;2023-07-24T10:35:46;20.60;99.90
23827;DHT22;12094;50.822;4.376;2023-07-24T10:38:16;20.70;99.90
23827;DHT22;12094;50.822;4.376;2023-07-24T10:40:45;20.70;99.90
23827;DHT22;12094;50.822;4.376;2023-07-24T10:43:18;21.00;99.90
23827;DHT22;12094;50.822;4.376;2023-07-24T10:45:48;20.50;99.90
23827;DHT22;12094;50.822;4.376;2023-07-24T10:48:22;20.30;99.90
23827;DHT22;12094;50.822;4.376;2023-07-24T10:50:50;20.40;99.90
23827;DHT22;12094;50.822;4.376;2023-07-24T10:53:21;20.50;99.90
23827;DHT22;12094;50.822;4.376;2023-07-24T10:55:51;20.70;99.90
23827;DHT22;12094;50.822;4.376;2023-07-24T10:58:18;20.80;99.90
23827;DHT22;12094;50.822;4.376;2023-07-24T11:00:48;20.80;99.90
23827;DHT22;12094;50.822;4.376;2023-07-24T11:03:17;20.80;99.90
23827;DHT22;12094;50.822;4.376;2023-07-24T11:05:45;20.40;99.90
23827;DHT22;12094;50.822;4.376;2023-07-24T11:08:17;20.30;99.90
23827;DHT22;12094;50.822;4.376;2023-07-24T11:10:52;20.00;99.90
23827;DHT22;12094;50.822;4.376;2023-07-24T11:13:21;19.80;99.90
23827;DHT22;12094;50.822;4.376;2023-07-24T11:15:52;19.80;99.90
23827;DHT22;12094;50.822;4.376;2023-07-24T11:18:22;19.80;99.90
23827;DHT22;12094;50.822;4.376;2023-07-24T11:20:58;20.10;99.90
23827;DHT22;12094;50.822;4.376;2023-07-24T11:23:25;20.20;99.90
23827;DHT22;12094;50.822;4.376;2023-07-24T11:25:53;20.40;99.90
23827;DHT22;12094;50.822;4.376;2023-07-24T11:28:21;20.60;99.90
23827;DHT22;12094;50.822;4.376;2023-07-24T11:30:48;20.40;99.90
23827;DHT22;12094;50.822;4.376;2023-07-24T11:33:16;19.80;99.90
23827;DHT22;12094;50.822;4.376;2023-07-24T11:35:48;19.80;99.90
23827;DHT22;12094;50.822;4.376;2023-07-24T11:38:19;20.10;99.90
23827;DHT22;12094;50.822;4.376;2023-07-24T11:40:49;20.40;99.90
23827;DHT22;12094;50.822;4.376;2023-07-24T11:43:20;20.70;99.90
23827;DHT22;12094;50.822;4.376;2023-07-24T11:45:48;21.00;99.90
23827;DHT22;12094;50.822;4.376;2023-07-24T11:48:20;21.30;99.90
23827;DHT22;12094;50.822;4.376;2023-07-24T11:50:52;21.20;99.90
23827;DHT22;12094;50.822;4.376;2023-07-24T11:53:25;21.10;99.90
23827;DHT22;12094;50.822;4.376;2023-07-24T11:55:59;21.40;99.90
23827;DHT22;12094;50.822;4.376;2023-07-24T11:58:28;21.70;99.90
23827;DHT22;12094;50.822;4.376;2023-07-24T12:00:58;21.60;99.90
23827;DHT22;12094;50.822;4.376;2023-07-24T12:03:27;21.20;99.90
23827;DHT22;12094;50.822;4.376;2023-07-24T12:05:55;21.20;99.90
23827;DHT22;12094;50.822;4.376;2023-07-24T12:08:33;21.50;99.90
23827;DHT22;12094;50.822;4.376;2023-07-24T12:11:02;21.90;99.90
23827;DHT22;12094;50.822;4.376;2023-07-24T12:13:29;22.40;99.90
23827;DHT22;12094;50.822;4.376;2023-07-24T12:15:58;23.20;99.90
23827;DHT22;12094;50.822;4.376;2023-07-24T12:18:25;23.80;99.90
23827;DHT22;12094;50.822;4.376;2023-07-24T12:20:55;23.70;99.90
23827;DHT22;12094;50.822;4.376;2023-07-24T12:23:22;23.00;99.90
23827;DHT22;12094;50.822;4.376;2023-07-24T12:25:49;23.00;99.90
23827;DHT22;12094;50.822;4.376;2023-07-24T12:28:16;22.80;99.90
23827;DHT22;12094;50.822;4.376;2023-07-24T12:30:45;23.00;99.90
23827;DHT22;12094;50.822;4.376;2023-07-24T12:33:15;22.80;99.90
23827;DHT22;12094;50.822;4.376;2023-07-24T12:35:43;22.30;99.90
23827;DHT22;12094;50.822;4.376;2023-07-24T12:38:11;22.20;99.90
23827;DHT22;12094;50.822;4.376;2023-07-24T12:40:38;22.10;99.90
23827;DHT22;12094;50.822;4.376;2023-07-24T12:43:05;22.00;99.90
23827;DHT22;12094;50.822;4.376;2023-07-24T12:45:32;21.50;99.90
23827;DHT22;12094;50.822;4.376;2023-07-24T12:47:59;21.30;99.90
23827;DHT22;12094;50.822;4.376;2023-07-24T12:50:26;21.60;99.90
23827;DHT22;12094;50.822;4.376;2023-07-24T12:52:53;21.80;99.90
23827;DHT22;12094;50.822;4.376;2023-07-24T12:55:21;21.90;99.90
23827;DHT22;12094;50.822;4.376;2023-07-24T12:57:48;22.50;99.90
23827;DHT22;12094;50.822;4.376;2023-07-24T13:00:16;23.10;99.90
23827;DHT22;12094;50.822;4.376;2023-07-24T13:02:43;23.30;99.90
23827;DHT22;12094;50.822;4.376;2023-07-24T13:05:11;22.80;99.90
23827;DHT22;12094;50.822;4.376;2023-07-24T13:07:38;22.40;99.90
23827;DHT22;12094;50.822;4.376;2023-07-24T13:10:06;22.60;99.90
23827;DHT22;12094;50.822;4.376;2023-07-24T13:12:33;22.40;99.90
23827;DHT22;12094;50.822;4.376;2023-07-24T13:15:00;22.20;99.90
23827;DHT22;12094;50.822;4.376;2023-07-24T13:17:27;21.60;99.90
23827;DHT22;12094;50.822;4.376;2023-07-24T13:19:55;21.20;99.90
23827;DHT22;12094;50.822;4.376;2023-07-24T13:22:22;21.20;99.90
23827;DHT22;12094;50.822;4.376;2023-07-24T13:24:49;21.40;99.90
23827;DHT22;12094;50.822;4.376;2023-07-24T13:27:16;21.50;99.90
23827;DHT22;12094;50.822;4.376;2023-07-24T13:29:43;21.80;99.90
23827;DHT22;12094;50.822;4.376;2023-07-24T13:32:10;21.50;99.90
23827;DHT22;12094;50.822;4.376;2023-07-24T13:34:37;21.30;99.90
23827;DHT22;12094;50.822;4.376;2023-07-24T13:37:05;21.40;99.90
23827;DHT22;12094;50.822;4.376;2023-07-24T13:39:32;21.60;99.90
23827;DHT22;12094;50.822;4.376;2023-07-24T13:42:01;21.30;99.90
23827;DHT22;12094;50.822;4.376;2023-07-24T13:44:29;20.90;99.90
23827;DHT22;12094;50.822;4.376;2023-07-24T13:46:56;20.70;99.90
23827;DHT22;12094;50.822;4.376;2023-07-24T13:49:24;21.00;99.90
23827;DHT22;12094;50.822;4.376;2023-07-24T13:51:52;21.50;99.90
23827;DHT22;12094;50.822;4.376;2023-07-24T13:54:20;21.40;99.90
23827;DHT22;12094;50.822;4.376;2023-07-24T13:56:48;21.30;99.90
23827;DHT22;12094;50.822;4.376;2023-07-24T13:59:16;21.40;99.90
23827;DHT22;12094;50.822;4.376;2023-07-24T14:01:44;21.20;99.90
23827;DHT22;12094;50.822;4.376;2023-07-24T14:04:14;21.10;99.90
23827;DHT22;12094;50.822;4.376;2023-07-24T14:06:45;21.00;99.90
23827;DHT22;12094;50.822;4.376;2023-07-24T14:09:12;21.30;99.90
23827;DHT22;12094;50.822;4.376;2023-07-24T14:11:41;21.50;99.90
23827;DHT22;12094;50.822;4.376;2023-07-24T14:14:10;21.90;99.90
23827;DHT22;12094;50.822;4.376;2023-07-24T14:16:38;22.50;99.90
23827;DHT22;12094;50.822;4.376;2023-07-24T14:19:08;22.70;99.90
23827;DHT22;12094;50.822;4.376;2023-07-24T14:21:35;22.30;99.90
23827;DHT22;12094;50.822;4.376;2023-07-24T14:24:03;21.90;99.90
23827;DHT22;12094;50.822;4.376;2023-07-24T14:26:30;22.00;99.90
23827;DHT22;12094;50.822;4.376;2023-07-24T14:28:56;22.90;99.90
23827;DHT22;12094;50.822;4.376;2023-07-24T14:31:24;23.60;99.90
23827;DHT22;12094;50.822;4.376;2023-07-24T14:33:52;23.80;99.90
23827;DHT22;12094;50.822;4.376;2023-07-24T14:36:19;23.00;99.90
23827;DHT22;12094;50.822;4.376;2023-07-24T14:38:47;22.70;99.90
23827;DHT22;12094;50.822;4.376;2023-07-24T14:41:16;22.60;99.90
23827;DHT22;12094;50.822;4.376;2023-07-24T14:43:43;22.80;99.90
23827;DHT22;12094;50.822;4.376;2023-07-24T14:46:11;23.00;99.90
23827;DHT22;12094;50.822;4.376;2023-07-24T14:48:38;22.60;99.90
23827;DHT22;12094;50.822;4.376;2023-07-24T14:51:06;22.40;99.90
23827;DHT22;12094;50.822;4.376;2023-07-24T14:53:33;22.40;99.90
23827;DHT22;12094;50.822;4.376;2023-07-24T14:56:00;22.40;99.90
23827;DHT22;12094;50.822;4.376;2023-07-24T14:58:27;22.00;99.90
23827;DHT22;12094;50.822;4.376;2023-07-24T15:00:54;21.40;99.90
23827;DHT22;12094;50.822;4.376;2023-07-24T15:03:22;21.00;99.90
23827;DHT22;12094;50.822;4.376;2023-07-24T15:05:49;20.50;99.90
23827;DHT22;12094;50.822;4.376;2023-07-24T15:08:17;20.50;99.90
23827;DHT22;12094;50.822;4.376;2023-07-24T15:10:46;20.20;99.90
23827;DHT22;12094;50.822;4.376;2023-07-24T15:13:14;20.00;99.90
23827;DHT22;12094;50.822;4.376;2023-07-24T15:15:41;19.90;99.90
23827;DHT22;12094;50.822;4.376;2023-07-24T15:18:08;19.80;99.90
23827;DHT22;12094;50.822;4.376;2023-07-24T15:20:37;19.40;99.90
23827;DHT22;12094;50.822;4.376;2023-07-24T15:23:05;18.90;99.90
23827;DHT22;12094;50.822;4.376;2023-07-24T15:25:35;18.50;99.90
23827;DHT22;12094;50.822;4.376;2023-07-24T15:28:03;18.20;99.90
23827;DHT22;12094;50.822;4.376;2023-07-24T15:30:32;18.00;99.90
23827;DHT22;12094;50.822;4.376;2023-07-24T15:33:01;17.80;99.90
23827;DHT22;12094;50.822;4.376;2023-07-24T15:35:30;17.50;99.90
23827;DHT22;12094;50.822;4.376;2023-07-24T15:37:56;17.40;99.90